sensor_id;sensor_type;location;lat;lon;timestamp;temperature;humidity
10282;DHT22;5186;59.472;18.048;2023-02-15T00:01:44;4.10;99.90
10282;DHT22;5186;59.472;18.048;2023-02-15T00:04:13;4.10;99.90
10282;DHT22;5186;59.472;18.048;2023-02-15T00:06:39;4.10;99.90
10282;DHT22;5186;59.472;18.048;2023-02-15T00:09:04;4.20;99.90
10282;DHT22;5186;59.472;18.048;2023-02-15T00:11:30;4.20;99.90
10282;DHT22;5186;59.472;18.048;2023-02-15T00:14:07;4.20;99.90
10282;DHT22;5186;59.472;18.048;2023-02-15T00:16:33;4.20;99.90
10282;DHT22;5186;59.472;18.048;2023-02-15T00:18:58;4.20;99.90
10282;DHT22;5186;59.472;18.048;2023-02-15T00:21:31;4.20;99.90
10282;DHT22;5186;59.472;18.048;2023-02-15T00:23:58;4.20;99.90
10282;DHT22;5186;59.472;18.048;2023-02-15T00:26:25;4.20;99.90
10282;DHT22;5186;59.472;18.048;2023-02-15T00:28:51;4.30;99.90
10282;DHT22;5186;59.472;18.048;2023-02-15T00:31:16;4.30;99.90
10282;DHT22;5186;59.472;18.048;2023-02-15T00:33:42;4.30;99.90
10282;DHT22;5186;59.472;18.048;2023-02-15T00:36:09;4.30;99.90
10282;DHT22;5186;59.472;18.048;2023-02-15T00:38:35;4.30;99.90
10282;DHT22;5186;59.472;18.048;2023-02-15T00:41:02;4.40;99.90
10282;DHT22;5186;59.472;18.048;2023-02-15T00:43:30;4.40;99.90
10282;DHT22;5186;59.472;18.048;2023-02-15T00:45:56;4.40;99.90
10282;DHT22;5186;59.472;18.048;2023-02-15T00:48:22;4.40;99.90
10282;DHT22;5186;59.472;18.048;2023-02-15T00:50:53;4.30;99.90
10282;DHT22;5186;59.472;18.048;2023-02-15T00:53:20;4.30;99.90
10282;DHT22;5186;59.472;18.048;2023-02-15T00:55:46;4.30;99.90
10282;DHT22;5186;59.472;18.048;2023-02-15T00:58:13;4.30;99.90
10282;DHT22;5186;59.472;18.048;2023-02-15T01:00:40;4.20;99.90
10282;DHT22;5186;59.472;18.048;2023-02-15T01:03:06;4.30;99.90
10282;DHT22;5186;59.472;18.048;2023-02-15T01:05:32;4.30;99.90
10282;DHT22;5186;59.472;18.048;2023-02-15T01:07:58;4.20;99.90
10282;DHT22;5186;59.472;18.048;2023-02-15T01:10:25;4.30;99.90
10282;DHT22;5186;59.472;18.048;2023-02-15T01:12:52;4.30;99.90
10282;DHT22;5186;59.472;18.048;2023-02-15T01:15:18;4.30;99.90
10282;DHT22;5186;59.472;18.048;2023-02-15T01:17:45;4.30;99.90
10282;DHT22;5186;59.472;18.048;2023-02-15T01:20:17;4.30;99.90
10282;DHT22;5186;59.472;18.048;2023-02-15T01:22:43;4.30;99.90
10282;DHT22;5186;59.472;18.048;2023-02-15T01:25:08;4.20;99.90
10282;DHT22;5186;59.472;18.048;2023-02-15T01:27:34;4.20;99.90
10282;DHT22;5186;59.472;18.048;2023-02-15T01:30:00;4.30;99.90
10282;DHT22;5186;59.472;18.048;2023-02-15T01:32:25;4.30;99.90
10282;DHT22;5186;59.472;18.048;2023-02-15T01:34:52;4.30;99.90
10282;DHT22;5186;59.472;18.048;2023-02-15T01:37:18;4.30;99.90
10282;DHT22;5186;59.472;18.048;2023-02-15T01:39:43;4.30;99.90
10282;DHT22;5186;59.472;18.048;2023-02-15T01:42:12;4.30;99.90
10282;DHT22;5186;59.472;18.048;2023-02-15T01:44:56;4.30;99.90
10282;DHT22;5186;59.472;18.048;2023-02-15T01:47:45;4.20;99.90
10282;DHT22;5186;59.472;18.048;2023-02-15T01:50:38;4.30;99.90
10282;DHT22;5186;59.472;18.048;2023-02-15T01:55:37;4.20;99.90
10282;DHT22;5186;59.472;18.048;2023-02-15T01:58:06;4.20;99.90
10282;DHT22;5186;59.472;18.048;2023-02-15T02:00:32;4.20;99.90
10282;DHT22;5186;59.472;18.048;2023-02-15T02:02:58;4.30;99.90
10282;DHT22;5186;59.472;18.048;2023-02-15T02:05:24;4.30;99.90
10282;DHT22;5186;59.472;18.048;2023-02-15T02:07:51;4.30;99.90
10282;DHT22;5186;59.472;18.048;2023-02-15T02:10:21;4.30;99.90
10282;DHT22;5186;59.472;18.048;2023-02-15T02:12:50;4.30;99.90
10282;DHT22;5186;59.472;18.048;2023-02-15T02:15:17;4.30;99.90
10282;DHT22;5186;59.472;18.048;2023-02-15T02:17:53;4.30;99.90
10282;DHT22;5186;59.472;18.048;2023-02-15T02:20:36;4.30;99.90
10282;DHT22;5186;59.472;18.048;2023-02-15T02:23:38;4.30;99.90
10282;DHT22;5186;59.472;18.048;2023-02-15T02:28:45;4.30;99.90
10282;DHT22;5186;59.472;18.048;2023-02-15T02:34:01;4.30;99.90
10282;DHT22;5186;59.472;18.048;2023-02-15T02:42:04;4.20;99.90
10282;DHT22;5186;59.472;18.048;2023-02-15T02:47:22;4.30;99.90
10282;DHT22;5186;59.472;18.048;2023-02-15T02:49:52;4.30;99.90
10282;DHT22;5186;59.472;18.048;2023-02-15T02:52:45;4.30;99.90
10282;DHT22;5186;59.472;18.048;2023-02-15T03:01:05;4.30;99.90
10282;DHT22;5186;59.472;18.048;2023-02-15T03:04:11;4.30;99.90
10282;DHT22;5186;59.472;18.048;2023-02-15T03:09:36;4.30;99.90
10282;DHT22;5186;59.472;18.048;2023-02-15T03:12:13;4.30;99.90
10282;DHT22;5186;59.472;18.048;2023-02-15T03:14:40;4.30;99.90
10282;DHT22;5186;59.472;18.048;2023-02-15T03:17:08;4.30;99.90
10282;DHT22;5186;59.472;18.048;2023-02-15T03:19:36;4.30;99.90
10282;DHT22;5186;59.472;18.048;2023-02-15T03:22:23;4.30;99.90
10282;DHT22;5186;59.472;18.048;2023-02-15T03:24:57;4.30;99.90
10282;DHT22;5186;59.472;18.048;2023-02-15T03:27:27;4.30;99.90
10282;DHT22;5186;59.472;18.048;2023-02-15T03:29:56;4.30;99.90
10282;DHT22;5186;59.472;18.048;2023-02-15T03:32:24;4.40;99.90
10282;DHT22;5186;59.472;18.048;2023-02-15T03:34:52;4.40;99.90
10282;DHT22;5186;59.472;18.048;2023-02-15T03:37:53;4.40;99.90
10282;DHT22;5186;59.472;18.048;2023-02-15T03:40:31;4.40;99.90
10282;DHT22;5186;59.472;18.048;2023-02-15T03:49:16;4.40;99.90
10282;DHT22;5186;59.472;18.048;2023-02-15T03:51:46;4.40;99.90
10282;DHT22;5186;59.472;18.048;2023-02-15T03:54:22;4.40;99.90
10282;DHT22;5186;59.472;18.048;2023-02-15T03:57:11;4.40;99.90
10282;DHT22;5186;59.472;18.048;2023-02-15T03:59:55;4.40;99.90
10282;DHT22;5186;59.472;18.048;2023-02-15T04:02:55;4.40;99.90
10282;DHT22;5186;59.472;18.048;2023-02-15T04:05:23;4.40;99.90
10282;DHT22;5186;59.472;18.048;2023-02-15T04:07:49;4.40;99.90
10282;DHT22;5186;59.472;18.048;2023-02-15T04:10:14;4.40;99.90
10282;DHT22;5186;59.472;18.048;2023-02-15T04:12:58;4.40;99.90
10282;DHT22;5186;59.472;18.048;2023-02-15T04:15:24;4.40;99.90
10282;DHT22;5186;59.472;18.048;2023-02-15T04:18:08;4.40;99.90
10282;DHT22;5186;59.472;18.048;2023-02-15T04:20:34;4.40;99.90
10282;DHT22;5186;59.472;18.048;2023-02-15T04:23:18;4.50;99.90
10282;DHT22;5186;59.472;18.048;2023-02-15T04:26:04;4.50;99.90
10282;DHT22;5186;59.472;18.048;2023-02-15T04:28:30;4.50;99.90
10282;DHT22;5186;59.472;18.048;2023-02-15T04:30:55;4.50;99.90
10282;DHT22;5186;59.472;18.048;2023-02-15T04:33:21;4.50;99.90
10282;DHT22;5186;59.472;18.048;2023-02-15T04:35:46;4.50;99.90
10282;DHT22;5186;59.472;18.048;2023-02-15T04:38:12;4.40;99.90
10282;DHT22;5186;59.472;18.048;2023-02-15T04:40:38;4.50;99.90
10282;DHT22;5186;59.472;18.048;2023-02-15T04:43:03;4.50;99.90
10282;DHT22;5186;59.472;18.048;2023-02-15T04:45:29;4.50;99.90
10282;DHT22;5186;59.472;18.048;2023-02-15T04:47:54;4.50;99.90
10282;DHT22;5186;59.472;18.048;2023-02-15T04:50:20;4.50;99.90
10282;DHT22;5186;59.472;18.048;2023-02-15T04:52:46;4.60;99.90
10282;DHT22;5186;59.472;18.048;2023-02-15T04:55:11;4.50;99.90
10282;DHT22;5186;59.472;18.048;2023-02-15T04:57:37;4.50;99.90
10282;DHT22;5186;59.472;18.048;2023-02-15T05:00:03;4.50;99.90
10282;DHT22;5186;59.472;18.048;2023-02-15T05:02:29;4.50;99.90
10282;DHT22;5186;59.472;18.048;2023-02-15T05:04:54;4.50;99.90
10282;DHT22;5186;59.472;18.048;2023-02-15T05:07:20;4.50;99.90
10282;DHT22;5186;59.472;18.048;2023-02-15T05:09:45;4.50;99.90
10282;DHT22;5186;59.472;18.048;2023-02-15T05:12:11;4.50;99.90
10282;DHT22;5186;59.472;18.048;2023-02-15T05:14:36;4.60;99.90
10282;DHT22;5186;59.472;18.048;2023-02-15T05:17:02;4.60;99.90
10282;DHT22;5186;59.472;18.048;2023-02-15T05:19:28;4.50;99.90
10282;DHT22;5186;59.472;18.048;2023-02-15T05:21:54;4.50;99.90
10282;DHT22;5186;59.472;18.048;2023-02-15T05:24:20;4.50;99.90
10282;DHT22;5186;59.472;18.048;2023-02-15T05:27:04;4.50;99.90
10282;DHT22;5186;59.472;18.048;2023-02-15T05:29:49;4.50;99.90
10282;DHT22;5186;59.472;18.048;2023-02-15T05:32:14;4.50;99.90
10282;DHT22;5186;59.472;18.048;2023-02-15T05:34:40;4.50;99.90
10282;DHT22;5186;59.472;18.048;2023-02-15T05:37:05;4.50;99.90
10282;DHT22;5186;59.472;18.048;2023-02-15T05:39:33;4.50;99.90
10282;DHT22;5186;59.472;18.048;2023-02-15T05:41:59;4.50;99.90
10282;DHT22;5186;59.472;18.048;2023-02-15T05:44:25;4.50;99.90
10282;DHT22;5186;59.472;18.048;2023-02-15T05:46:51;4.50;99.90
10282;DHT22;5186;59.472;18.048;2023-02-15T05:49:16;4.60;99.90
10282;DHT22;5186;59.472;18.048;2023-02-15T05:51:42;4.60;99.90
10282;DHT22;5186;59.472;18.048;2023-02-15T05:54:07;4.60;99.90
10282;DHT22;5186;59.472;18.048;2023-02-15T05:56:33;4.60;99.90
10282;DHT22;5186;59.472;18.048;2023-02-15T05:58:58;4.60;99.90
10282;DHT22;5186;59.472;18.048;2023-02-15T06:01:24;4.60;99.90
10282;DHT22;5186;59.472;18.048;2023-02-15T06:03:49;4.60;99.90
10282;DHT22;5186;59.472;18.048;2023-02-15T06:06:15;4.60;99.90
10282;DHT22;5186;59.472;18.048;2023-02-15T06:08:41;4.60;99.90
10282;DHT22;5186;59.472;18.048;2023-02-15T06:11:07;4.60;99.90
10282;DHT22;5186;59.472;18.048;2023-02-15T06:13:34;4.60;99.90
10282;DHT22;5186;59.472;18.048;2023-02-15T06:15:59;4.60;99.90
10282;DHT22;5186;59.472;18.048;2023-02-15T06:18:25;4.70;99.90
10282;DHT22;5186;59.472;18.048;2023-02-15T06:20:51;4.60;99.90
10282;DHT22;5186;59.472;18.048;2023-02-15T06:23:17;4.60;99.90
10282;DHT22;5186;59.472;18.048;2023-02-15T06:25:45;4.60;99.90
10282;DHT22;5186;59.472;18.048;2023-02-15T06:28:10;4.70;99.90
10282;DHT22;5186;59.472;18.048;2023-02-15T06:30:36;4.70;99.90
10282;DHT22;5186;59.472;18.048;2023-02-15T06:33:01;4.70;99.90
10282;DHT22;5186;59.472;18.048;2023-02-15T06:35:27;4.60;99.90
10282;DHT22;5186;59.472;18.048;2023-02-15T06:37:53;4.60;99.90
10282;DHT22;5186;59.472;18.048;2023-02-15T06:40:19;4.60;99.90
10282;DHT22;5186;59.472;18.048;2023-02-15T06:42:44;4.60;99.90
10282;DHT22;5186;59.472;18.048;2023-02-15T06:45:10;4.70;99.90
10282;DHT22;5186;59.472;18.048;2023-02-15T06:47:36;4.60;99.90
10282;DHT22;5186;59.472;18.048;2023-02-15T06:50:03;4.70;99.90
10282;DHT22;5186;59.472;18.048;2023-02-15T06:52:29;4.70;99.90
10282;DHT22;5186;59.472;18.048;2023-02-15T06:54:55;4.70;99.90
10282;DHT22;5186;59.472;18.048;2023-02-15T06:57:20;4.70;99.90
10282;DHT22;5186;59.472;18.048;2023-02-15T06:59:46;4.70;99.90
10282;DHT22;5186;59.472;18.048;2023-02-15T07:02:12;4.70;99.90
10282;DHT22;5186;59.472;18.048;2023-02-15T07:04:38;4.70;99.90
10282;DHT22;5186;59.472;18.048;2023-02-15T07:07:03;4.70;99.90
10282;DHT22;5186;59.472;18.048;2023-02-15T07:09:29;4.70;99.90
10282;DHT22;5186;59.472;18.048;2023-02-15T07:11:55;4.70;99.90
10282;DHT22;5186;59.472;18.048;2023-02-15T07:14:39;4.70;99.90
10282;DHT22;5186;59.472;18.048;2023-02-15T07:17:05;4.70;99.90
10282;DHT22;5186;59.472;18.048;2023-02-15T07:19:31;4.70;99.90
10282;DHT22;5186;59.472;18.048;2023-02-15T07:21:57;4.70;99.90
10282;DHT22;5186;59.472;18.048;2023-02-15T07:24:22;4.70;99.90
10282;DHT22;5186;59.472;18.048;2023-02-15T07:26:48;4.70;99.90
10282;DHT22;5186;59.472;18.048;2023-02-15T07:29:14;4.70;99.90
10282;DHT22;5186;59.472;18.048;2023-02-15T07:31:40;4.70;99.90
10282;DHT22;5186;59.472;18.048;2023-02-15T07:34:08;4.70;99.90
10282;DHT22;5186;59.472;18.048;2023-02-15T07:36:34;4.70;99.90
10282;DHT22;5186;59.472;18.048;2023-02-15T07:39:00;4.70;99.90
10282;DHT22;5186;59.472;18.048;2023-02-15T07:41:25;4.70;99.90
10282;DHT22;5186;59.472;18.048;2023-02-15T07:43:51;4.80;99.90
10282;DHT22;5186;59.472;18.048;2023-02-15T07:46:17;4.80;99.90
10282;DHT22;5186;59.472;18.048;2023-02-15T07:48:43;4.80;99.90
10282;DHT22;5186;59.472;18.048;2023-02-15T07:51:10;4.70;99.90
10282;DHT22;5186;59.472;18.048;2023-02-15T07:53:37;4.70;99.90
10282;DHT22;5186;59.472;18.048;2023-02-15T07:56:04;4.70;99.90
10282;DHT22;5186;59.472;18.048;2023-02-15T07:58:31;4.70;99.90
10282;DHT22;5186;59.472;18.048;2023-02-15T08:01:16;4.80;99.90
10282;DHT22;5186;59.472;18.048;2023-02-15T08:03:42;4.70;99.90
10282;DHT22;5186;59.472;18.048;2023-02-15T08:06:07;4.70;99.90
10282;DHT22;5186;59.472;18.048;2023-02-15T08:08:34;4.80;99.90
10282;DHT22;5186;59.472;18.048;2023-02-15T08:11:06;4.80;99.90
10282;DHT22;5186;59.472;18.048;2023-02-15T08:13:52;4.70;99.90
10282;DHT22;5186;59.472;18.048;2023-02-15T08:19:12;4.70;99.90
10282;DHT22;5186;59.472;18.048;2023-02-15T08:21:40;4.80;99.90
10282;DHT22;5186;59.472;18.048;2023-02-15T08:24:07;4.80;99.90
10282;DHT22;5186;59.472;18.048;2023-02-15T08:26:34;4.80;99.90
10282;DHT22;5186;59.472;18.048;2023-02-15T08:29:01;4.80;99.90
10282;DHT22;5186;59.472;18.048;2023-02-15T08:31:27;4.80;99.90
10282;DHT22;5186;59.472;18.048;2023-02-15T08:33:54;4.80;99.90
10282;DHT22;5186;59.472;18.048;2023-02-15T08:36:24;4.80;99.90
10282;DHT22;5186;59.472;18.048;2023-02-15T08:38:50;4.80;99.90
10282;DHT22;5186;59.472;18.048;2023-02-15T08:41:27;4.80;99.90
10282;DHT22;5186;59.472;18.048;2023-02-15T08:43:56;4.80;99.90
10282;DHT22;5186;59.472;18.048;2023-02-15T08:46:23;4.80;99.90
10282;DHT22;5186;59.472;18.048;2023-02-15T08:48:50;4.80;99.90
10282;DHT22;5186;59.472;18.048;2023-02-15T08:51:21;4.80;99.90
10282;DHT22;5186;59.472;18.048;2023-02-15T08:53:49;4.80;99.90
10282;DHT22;5186;59.472;18.048;2023-02-15T08:56:16;4.80;99.90
10282;DHT22;5186;59.472;18.048;2023-02-15T08:58:42;4.80;99.90
10282;DHT22;5186;59.472;18.048;2023-02-15T09:01:10;4.80;99.90
10282;DHT22;5186;59.472;18.048;2023-02-15T09:03:35;4.80;99.90
10282;DHT22;5186;59.472;18.048;2023-02-15T09:06:01;4.80;99.90
10282;DHT22;5186;59.472;18.048;2023-02-15T09:08:27;4.80;99.90
10282;DHT22;5186;59.472;18.048;2023-02-15T09:10:54;4.80;99.90
10282;DHT22;5186;59.472;18.048;2023-02-15T09:13:20;4.80;99.90
10282;DHT22;5186;59.472;18.048;2023-02-15T09:15:46;4.80;99.90
10282;DHT22;5186;59.472;18.048;2023-02-15T09:18:12;4.80;99.90
10282;DHT22;5186;59.472;18.048;2023-02-15T09:20:43;4.80;99.90
10282;DHT22;5186;59.472;18.048;2023-02-15T09:23:08;4.80;99.90
10282;DHT22;5186;59.472;18.048;2023-02-15T09:25:34;4.80;99.90
10282;DHT22;5186;59.472;18.048;2023-02-15T09:27:59;4.80;99.90
10282;DHT22;5186;59.472;18.048;2023-02-15T09:30:25;4.80;99.90
10282;DHT22;5186;59.472;18.048;2023-02-15T09:32:51;4.90;99.90
10282;DHT22;5186;59.472;18.048;2023-02-15T09:35:16;4.90;99.90
10282;DHT22;5186;59.472;18.048;2023-02-15T09:37:42;4.90;99.90
10282;DHT22;5186;59.472;18.048;2023-02-15T09:40:08;4.90;99.90
10282;DHT22;5186;59.472;18.048;2023-02-15T09:43:04;4.90;99.90
10282;DHT22;5186;59.472;18.048;2023-02-15T09:45:54;4.90;99.90
10282;DHT22;5186;59.472;18.048;2023-02-15T09:51:45;4.90;99.90
10282;DHT22;5186;59.472;18.048;2023-02-15T09:56:39;4.90;99.90
10282;DHT22;5186;59.472;18.048;2023-02-15T09:59:22;4.90;99.90
10282;DHT22;5186;59.472;18.048;2023-02-15T10:04:48;4.90;99.90
10282;DHT22;5186;59.472;18.048;2023-02-15T10:07:29;5.00;99.90
10282;DHT22;5186;59.472;18.048;2023-02-15T10:10:34;5.00;99.90
10282;DHT22;5186;59.472;18.048;2023-02-15T10:18:37;4.90;99.90
10282;DHT22;5186;59.472;18.048;2023-02-15T10:26:46;5.00;99.90
10282;DHT22;5186;59.472;18.048;2023-02-15T10:29:38;5.00;99.90
10282;DHT22;5186;59.472;18.048;2023-02-15T10:32:14;5.00;99.90
10282;DHT22;5186;59.472;18.048;2023-02-15T10:35:08;5.00;99.90
10282;DHT22;5186;59.472;18.048;2023-02-15T10:37:49;5.00;99.90
10282;DHT22;5186;59.472;18.048;2023-02-15T10:40:39;5.00;99.90
10282;DHT22;5186;59.472;18.048;2023-02-15T10:45:43;5.10;99.90
10282;DHT22;5186;59.472;18.048;2023-02-15T10:48:26;5.10;99.90
10282;DHT22;5186;59.472;18.048;2023-02-15T10:50:57;5.10;99.90
10282;DHT22;5186;59.472;18.048;2023-02-15T10:53:45;5.10;99.90
10282;DHT22;5186;59.472;18.048;2023-02-15T11:01:45;5.10;99.90
10282;DHT22;5186;59.472;18.048;2023-02-15T11:07:23;5.10;99.90
10282;DHT22;5186;59.472;18.048;2023-02-15T11:09:53;5.10;99.90
10282;DHT22;5186;59.472;18.048;2023-02-15T11:12:24;5.10;99.90
10282;DHT22;5186;59.472;18.048;2023-02-15T11:17:56;5.10;99.90
10282;DHT22;5186;59.472;18.048;2023-02-15T11:20:33;5.10;99.90
10282;DHT22;5186;59.472;18.048;2023-02-15T11:23:01;5.10;99.90
10282;DHT22;5186;59.472;18.048;2023-02-15T11:25:33;5.10;99.90
10282;DHT22;5186;59.472;18.048;2023-02-15T11:28:03;5.20;99.90
10282;DHT22;5186;59.472;18.048;2023-02-15T11:30:40;5.20;99.90
10282;DHT22;5186;59.472;18.048;2023-02-15T11:33:16;5.20;99.90
10282;DHT22;5186;59.472;18.048;2023-02-15T11:36:09;5.20;99.90
10282;DHT22;5186;59.472;18.048;2023-02-15T11:38:37;5.20;99.90
10282;DHT22;5186;59.472;18.048;2023-02-15T11:41:17;5.30;99.90
10282;DHT22;5186;59.472;18.048;2023-02-15T11:43:53;5.30;99.90
10282;DHT22;5186;59.472;18.048;2023-02-15T11:46:20;5.20;99.90
10282;DHT22;5186;59.472;18.048;2023-02-15T11:48:47;5.30;99.90
10282;DHT22;5186;59.472;18.048;2023-02-15T11:51:16;5.30;99.90
10282;DHT22;5186;59.472;18.048;2023-02-15T11:53:42;5.20;99.90
10282;DHT22;5186;59.472;18.048;2023-02-15T11:56:35;5.30;99.90
10282;DHT22;5186;59.472;18.048;2023-02-15T11:59:12;5.20;99.90
10282;DHT22;5186;59.472;18.048;2023-02-15T12:01:48;5.30;99.90
10282;DHT22;5186;59.472;18.048;2023-02-15T12:04:28;5.20;99.90
10282;DHT22;5186;59.472;18.048;2023-02-15T12:07:01;5.20;99.90
10282;DHT22;5186;59.472;18.048;2023-02-15T12:12:37;5.20;99.90
10282;DHT22;5186;59.472;18.048;2023-02-15T12:15:05;5.20;99.90
10282;DHT22;5186;59.472;18.048;2023-02-15T12:17:34;5.20;99.90
10282;DHT22;5186;59.472;18.048;2023-02-15T12:20:18;5.20;99.90
10282;DHT22;5186;59.472;18.048;2023-02-15T12:22:59;5.20;99.90
10282;DHT22;5186;59.472;18.048;2023-02-15T12:25:41;5.20;99.90
10282;DHT22;5186;59.472;18.048;2023-02-15T12:28:38;5.20;99.90
10282;DHT22;5186;59.472;18.048;2023-02-15T12:31:39;5.20;99.90
10282;DHT22;5186;59.472;18.048;2023-02-15T12:34:22;5.20;99.90
10282;DHT22;5186;59.472;18.048;2023-02-15T12:36:51;5.20;99.90
10282;DHT22;5186;59.472;18.048;2023-02-15T12:39:32;5.20;99.90
10282;DHT22;5186;59.472;18.048;2023-02-15T12:42:04;5.30;99.90
10282;DHT22;5186;59.472;18.048;2023-02-15T12:44:39;5.20;99.90
10282;DHT22;5186;59.472;18.048;2023-02-15T12:47:18;5.20;99.90
10282;DHT22;5186;59.472;18.048;2023-02-15T12:49:45;5.20;99.90
10282;DHT22;5186;59.472;18.048;2023-02-15T12:52:30;5.20;99.90
10282;DHT22;5186;59.472;18.048;2023-02-15T12:55:30;5.20;99.90
10282;DHT22;5186;59.472;18.048;2023-02-15T13:00:40;5.20;99.90
10282;DHT22;5186;59.472;18.048;2023-02-15T13:03:16;5.20;99.90
10282;DHT22;5186;59.472;18.048;2023-02-15T13:05:44;5.20;99.90
10282;DHT22;5186;59.472;18.048;2023-02-15T13:08:19;5.20;99.90
10282;DHT22;5186;59.472;18.048;2023-02-15T13:11:07;5.10;99.90
10282;DHT22;5186;59.472;18.048;2023-02-15T13:13:53;5.10;99.90
10282;DHT22;5186;59.472;18.048;2023-02-15T13:16:28;5.10;99.90
10282;DHT22;5186;59.472;18.048;2023-02-15T13:18:56;5.10;99.90
10282;DHT22;5186;59.472;18.048;2023-02-15T13:21:26;5.10;99.90
10282;DHT22;5186;59.472;18.048;2023-02-15T13:24:00;5.10;99.90
10282;DHT22;5186;59.472;18.048;2023-02-15T13:26:30;5.00;99.90
10282;DHT22;5186;59.472;18.048;2023-02-15T13:28:59;5.00;99.90
10282;DHT22;5186;59.472;18.048;2023-02-15T13:31:31;5.10;99.90
10282;DHT22;5186;59.472;18.048;2023-02-15T13:34:32;5.10;99.90
10282;DHT22;5186;59.472;18.048;2023-02-15T13:37:16;5.10;99.90
10282;DHT22;5186;59.472;18.048;2023-02-15T13:42:25;5.10;99.90
10282;DHT22;5186;59.472;18.048;2023-02-15T13:47:57;5.00;99.90
10282;DHT22;5186;59.472;18.048;2023-02-15T13:50:37;5.00;99.90
10282;DHT22;5186;59.472;18.048;2023-02-15T14:02:15;4.90;99.90
10282;DHT22;5186;59.472;18.048;2023-02-15T14:25:57;4.90;99.90
10282;DHT22;5186;59.472;18.048;2023-02-15T14:29:10;4.90;99.90
10282;DHT22;5186;59.472;18.048;2023-02-15T14:31:37;4.90;99.90
10282;DHT22;5186;59.472;18.048;2023-02-15T14:34:04;4.90;99.90
10282;DHT22;5186;59.472;18.048;2023-02-15T14:36:32;4.80;99.90
10282;DHT22;5186;59.472;18.048;2023-02-15T14:42:56;4.90;99.90
10282;DHT22;5186;59.472;18.048;2023-02-15T14:48:35;4.80;99.90
10282;DHT22;5186;59.472;18.048;2023-02-15T14:51:03;4.80;99.90
10282;DHT22;5186;59.472;18.048;2023-02-15T14:53:33;4.80;99.90
10282;DHT22;5186;59.472;18.048;2023-02-15T14:58:57;4.70;99.90
10282;DHT22;5186;59.472;18.048;2023-02-15T15:01:33;4.70;99.90
10282;DHT22;5186;59.472;18.048;2023-02-15T15:04:04;4.70;99.90
10282;DHT22;5186;59.472;18.048;2023-02-15T15:06:38;4.70;99.90
10282;DHT22;5186;59.472;18.048;2023-02-15T15:09:18;4.70;99.90
10282;DHT22;5186;59.472;18.048;2023-02-15T15:11:47;4.70;99.90
10282;DHT22;5186;59.472;18.048;2023-02-15T15:14:46;4.60;99.90
10282;DHT22;5186;59.472;18.048;2023-02-15T15:17:51;4.60;99.90
10282;DHT22;5186;59.472;18.048;2023-02-15T15:20:03;4.60;99.90
10282;DHT22;5186;59.472;18.048;2023-02-15T15:22:33;4.60;99.90
10282;DHT22;5186;59.472;18.048;2023-02-15T15:25:02;4.60;99.90
10282;DHT22;5186;59.472;18.048;2023-02-15T15:27:41;4.60;99.90
10282;DHT22;5186;59.472;18.048;2023-02-15T15:41:41;4.60;99.90
10282;DHT22;5186;59.472;18.048;2023-02-15T15:49:47;4.50;99.90
10282;DHT22;5186;59.472;18.048;2023-02-15T15:52:20;4.50;99.90
10282;DHT22;5186;59.472;18.048;2023-02-15T15:54:49;4.50;99.90
10282;DHT22;5186;59.472;18.048;2023-02-15T15:57:39;4.40;99.90
10282;DHT22;5186;59.472;18.048;2023-02-15T16:00:34;4.40;99.90
10282;DHT22;5186;59.472;18.048;2023-02-15T16:03:00;4.40;99.90
10282;DHT22;5186;59.472;18.048;2023-02-15T16:05:26;4.40;99.90
10282;DHT22;5186;59.472;18.048;2023-02-15T16:07:51;4.40;99.90
10282;DHT22;5186;59.472;18.048;2023-02-15T16:12:47;4.40;99.90
10282;DHT22;5186;59.472;18.048;2023-02-15T16:17:48;4.30;99.90
10282;DHT22;5186;59.472;18.048;2023-02-15T16:20:17;4.30;99.90
10282;DHT22;5186;59.472;18.048;2023-02-15T16:22:48;4.30;99.90
10282;DHT22;5186;59.472;18.048;2023-02-15T16:27:46;4.20;99.90
10282;DHT22;5186;59.472;18.048;2023-02-15T16:30:33;4.20;99.90
10282;DHT22;5186;59.472;18.048;2023-02-15T16:33:11;4.20;99.90
10282;DHT22;5186;59.472;18.048;2023-02-15T16:35:39;4.20;99.90
10282;DHT22;5186;59.472;18.048;2023-02-15T16:38:08;4.20;99.90
10282;DHT22;5186;59.472;18.048;2023-02-15T16:40:47;4.20;99.90
10282;DHT22;5186;59.472;18.048;2023-02-15T16:43:18;4.20;99.90
10282;DHT22;5186;59.472;18.048;2023-02-15T16:45:45;4.20;99.90
10282;DHT22;5186;59.472;18.048;2023-02-15T16:48:16;4.20;99.90
10282;DHT22;5186;59.472;18.048;2023-02-15T16:50:48;4.10;99.90
10282;DHT22;5186;59.472;18.048;2023-02-15T16:53:21;4.10;99.90
10282;DHT22;5186;59.472;18.048;2023-02-15T16:55:51;4.10;99.90
10282;DHT22;5186;59.472;18.048;2023-02-15T16:58:27;4.10;99.90
10282;DHT22;5186;59.472;18.048;2023-02-15T17:01:01;4.10;99.90
10282;DHT22;5186;59.472;18.048;2023-02-15T17:03:28;4.10;99.90
10282;DHT22;5186;59.472;18.048;2023-02-15T17:05:59;4.00;99.90
10282;DHT22;5186;59.472;18.048;2023-02-15T17:08:33;4.00;99.90
10282;DHT22;5186;59.472;18.048;2023-02-15T17:13:26;4.10;99.90
10282;DHT22;5186;59.472;18.048;2023-02-15T17:18:31;4.00;99.90
10282;DHT22;5186;59.472;18.048;2023-02-15T17:21:08;4.00;99.90
10282;DHT22;5186;59.472;18.048;2023-02-15T17:23:42;4.00;99.90
10282;DHT22;5186;59.472;18.048;2023-02-15T17:26:30;3.90;99.90
10282;DHT22;5186;59.472;18.048;2023-02-15T17:29:14;4.00;99.90
10282;DHT22;5186;59.472;18.048;2023-02-15T17:31:48;3.90;99.90
10282;DHT22;5186;59.472;18.048;2023-02-15T17:34:50;3.90;99.90
10282;DHT22;5186;59.472;18.048;2023-02-15T17:40:05;3.90;99.90
10282;DHT22;5186;59.472;18.048;2023-02-15T17:42:33;3.90;99.90
10282;DHT22;5186;59.472;18.048;2023-02-15T17:44:58;3.90;99.90
10282;DHT22;5186;59.472;18.048;2023-02-15T17:47:24;3.90;99.90
10282;DHT22;5186;59.472;18.048;2023-02-15T17:49:52;3.80;99.90
10282;DHT22;5186;59.472;18.048;2023-02-15T17:52:18;3.80;99.90
10282;DHT22;5186;59.472;18.048;2023-02-15T17:54:44;3.80;99.90
10282;DHT22;5186;59.472;18.048;2023-02-15T17:57:29;3.80;99.90
10282;DHT22;5186;59.472;18.048;2023-02-15T17:59:55;3.70;99.90
10282;DHT22;5186;59.472;18.048;2023-02-15T18:02:40;3.70;99.90
10282;DHT22;5186;59.472;18.048;2023-02-15T18:05:25;3.70;99.90
10282;DHT22;5186;59.472;18.048;2023-02-15T18:08:16;3.70;99.90
10282;DHT22;5186;59.472;18.048;2023-02-15T18:11:01;3.60;99.90
10282;DHT22;5186;59.472;18.048;2023-02-15T18:13:45;3.70;99.90
10282;DHT22;5186;59.472;18.048;2023-02-15T18:16:13;3.60;99.90
10282;DHT22;5186;59.472;18.048;2023-02-15T18:18:39;3.60;99.90
10282;DHT22;5186;59.472;18.048;2023-02-15T18:21:05;3.60;99.90
10282;DHT22;5186;59.472;18.048;2023-02-15T18:23:34;3.60;99.90
10282;DHT22;5186;59.472;18.048;2023-02-15T18:25:59;3.70;99.90
10282;DHT22;5186;59.472;18.048;2023-02-15T18:28:25;3.60;99.90
10282;DHT22;5186;59.472;18.048;2023-02-15T18:30:51;3.60;99.90
10282;DHT22;5186;59.472;18.048;2023-02-15T18:33:35;3.60;99.90
10282;DHT22;5186;59.472;18.048;2023-02-15T18:36:04;3.60;99.90
10282;DHT22;5186;59.472;18.048;2023-02-15T18:38:30;3.60;99.90
10282;DHT22;5186;59.472;18.048;2023-02-15T18:40:56;3.60;99.90
10282;DHT22;5186;59.472;18.048;2023-02-15T18:43:22;3.60;99.90
10282;DHT22;5186;59.472;18.048;2023-02-15T18:45:47;3.60;99.90